Terminal Aerodrome Forecast
Issued by NWS

Home | Current Version | Previous Version | Text Only | Print | Product List | Glossary On
Versions: 1 2 3 4 5 6 7 8 9 10 11 12 13 14 15 16 17 18 19 20 21 22 23 24 25
000
FTUS41 KGYX 222141 AAC
TAFLEB
TAF AMD
KLEB 222141Z 2222/2318 VRB03KT P6SM -SHRA SCT015 OVC050
      TEMPO 2222/2224 2SM -SHRA OVC003
     FM230000 VRB03KT P6SM SCT015 BKN080
      TEMPO 2308/2312 2SM BR SCT002=

USA.gov is the U.S. government's official web portal to all federal, state and local government web resources and services.